Salisbury, Canada
Current Conditions -  °F | °C
As of 3:00 AM on Wednesday 26 Nov 2014 (Local Time) from CYQM Reporting Station
Broken Clouds Broken Clouds  
Wind Chill: 33°   Ceiling: 22000
Heat Index: 41°   Visibility: 15mi
Dew Point: 27°   Wind: 16mph
Humidity: 57%   Direction: 240°WSW
Pressure: 29.98"   Gusts: 22mph
Location:  46.03°N, 65.05°W
Report Text: CYQM 260700Z 24014G19KT 15SM BKN220 05/M03 A2998 RMK CI5 SLP155
Loading
Personal Weather Stations






























Interactive Weather Map New forecast layout! Learn more

10-Day Weather Forecast

Advertisements
Track Severe Weather on mobile